Nearby METAR Reports

 

EDNY - Friedrichshafen, Germany
Distance from station: ONO 32km
aktuell: 20.08.2019 03:50
geschlossene Wolkendecke
geschlossene Wolkendecke
 Wind von varies
Wind: varies 2 km/h
Temperatur: 17°C
Taupunkt: 16°C
Luftfeuchte: 94%
Luftdruck: 1021 hPa
Clouds: geschlossene Wolkendecke
Visibility: 10 km
Cloud details: stark bewölkt 732 m
stark bewölkt 1128 m
geschlossene Wolkendecke 1372 m
2019/08/20 01:50 EDNY 200150Z AUTO VRB01KT 9999 // BKN024/// BKN037/// OVC045/// 17/16 Q1021
LSZR - Rheineck/Altenrh, Switzerland
Distance from station: OSO 37km
aktuell: 20.08.2019 03:50
stark bewölkt
stark bewölkt
 Wind von WNW
Wind: WNW 13 km/h
Temperatur: 18°C
Taupunkt: 17°C
Luftfeuchte: 94%
Luftdruck: 1021 hPa
Clouds: stark bewölkt
Visibility: 10 km
Cloud details: teilweise bewölkt 244 m
stark bewölkt 396 m
2019/08/20 01:50 LSZR 200150Z AUTO 29007KT 9999 SCT008 BKN013 18/17 Q1021
LSMD - Dubendorf, Switzerland
Distance from station: SW 40km
aktuell: 20.08.2019 03:50
sehr leichter Niederschlag, geschlossene Wolkendecke
sehr leichter Niederschlag, geschlossene Wolkendecke
 Wind von varies
Wind: varies 2 km/h
Temperatur: 16°C
Taupunkt: 15°C
Luftfeuchte: 94%
Luftdruck: 1021 hPa
Zusammenfassung: sehr leichter Niederschlag
Clouds: geschlossene Wolkendecke
Visibility: 10 km
Cloud details: teilweise bewölkt 1006 m
geschlossene Wolkendecke 1494 m
2019/08/20 01:50 LSMD 200150Z AUTO VRB01KT 9999NDV -RA SCT033 OVC049 16/15 Q1021 RMK
 
LSZH - Zurich-Kloten (a, Switzerland
Distance from station: WSW 44km
aktuell: 20.08.2019 03:50
stark bewölkt
stark bewölkt
 Wind von varies
Wind: varies 4 km/h
Temperatur: 16°C
Taupunkt: 15°C
Luftfeuchte: 94%
Luftdruck: 1021 hPa
Clouds: stark bewölkt
Visibility: 9 km
Cloud details: Few Clouds 122 m
teilweise bewölkt 1524 m
stark bewölkt 2438 m
2019/08/20 01:50 LSZH 200150Z VRB02KT 9000 FEW004 SCT050 BKN080 16/15 Q1021 TEMPO SHRA
LOIH - Hohenems-Dornbir, Austria
Distance from station: OSO 51km
aktuell: 31.10.2016 17:00
NOT Current
geschlossene Wolkendecke
geschlossene Wolkendecke
 Wind von calm
Wind: Windstill
Temperatur: 10°C
Taupunkt: 9°C
Luftfeuchte: 94%
Luftdruck: 1026 hPa
Clouds: geschlossene Wolkendecke
Cloud details: geschlossene Wolkendecke 305 m
2016/10/31 16:00 LOIH 311600Z 00000KT 10KM OVC010ST 10/09 Q1026 RMK OVC
LSME - Emmen, Switzerland
Distance from station: SW 82km
aktuell: 20.08.2019 03:50
sehr leichter Niederschlag, Showers, geschlossene Wolkendecke
sehr leichter Niederschlag, Showers, geschlossene Wolkendecke
 Wind von calm
Wind: Windstill
Temperatur: 16°C
Taupunkt: 15°C
Luftfeuchte: 94%
Luftdruck: 1022 hPa
Zusammenfassung: sehr leichter Niederschlag, Showers
Clouds: geschlossene Wolkendecke
Visibility: 10 km
Cloud details: Few Clouds 244 m
teilweise bewölkt 366 m
geschlossene Wolkendecke 488 m
2019/08/20 01:50 LSME 200150Z AUTO 00000KT 9999NDV -SHRA FEW008 SCT012 OVC016 16/15 Q1022 RMK
 
LSZC - Buochs, Switzerland
Distance from station: SW 89km
aktuell: 20.08.2019 03:50
Drizzle, teilweise bewölkt
Drizzle, teilweise bewölkt
 Wind von SW
Wind: SW 6 km/h
Temperatur: 17°C
Taupunkt: 15°C
Luftfeuchte: 88%
Luftdruck: 1022 hPa
Zusammenfassung: Drizzle
Clouds: teilweise bewölkt
Visibility: 10 km
Cloud details: stark bewölkt 366 m
teilweise bewölkt 549 m
2019/08/20 01:50 LSZC 200150Z AUTO 22003KT 180V250 9999 DZ BKN012 SCT018 17/15 Q1022
ETHL - Laupheim (ger-Ar, Germany
Distance from station: NO 92km
aktuell: 20.08.2019 03:20
geschlossene Wolkendecke
geschlossene Wolkendecke
 Wind von WSW
Wind: WSW 2 km/h
Temperatur: 16°C
Taupunkt: 15°C
Luftfeuchte: 94%
Luftdruck: 1021 hPa
Clouds: geschlossene Wolkendecke
Visibility: 10 km
Cloud details: Few Clouds 305 m
geschlossene Wolkendecke 792 m
2019/08/20 01:20 ETHL 200120Z 25001KT 9999 FEW010 OVC026 16/15 Q1021 BLU
EDJA - Memmingen Allgau, Germany
Distance from station: ONO 95km
aktuell: 19.08.2019 21:50
NOT Current
teilweise bewölkt
teilweise bewölkt
 Wind von varies
Wind: varies 6 km/h
Temperatur: 17°C
Taupunkt: 16°C
Luftfeuchte: 94%
Luftdruck: 1021 hPa
Clouds: teilweise bewölkt
Visibility: 10 km
Cloud details: teilweise bewölkt 762 m
teilweise bewölkt 1311 m
2019/08/19 19:50 EDJA 191950Z VRB03KT 9999 SCT025 SCT043 17/16 Q1021
 
LSMA - Alpnach, Switzerland
Distance from station: SW 95km
aktuell: 20.08.2019 03:50
sehr leichter Niederschlag, Showers, geschlossene Wolkendecke
sehr leichter Niederschlag, Showers, geschlossene Wolkendecke
 Wind von O
Wind: O 6 km/h
Temperatur: 17°C
Taupunkt: 15°C
Luftfeuchte: 88%
Luftdruck: 1022 hPa
Zusammenfassung: sehr leichter Niederschlag, Showers
Clouds: geschlossene Wolkendecke
Visibility: 10 km
Cloud details: Few Clouds 305 m
teilweise bewölkt 457 m
geschlossene Wolkendecke 549 m
2019/08/20 01:50 LSMA 200150Z AUTO 08003KT 360V120 9999NDV -SHRA FEW010 SCT015 OVC018 17/15 Q1022 RMK